Time;durP1;ratioP1;P1;durP2;ratioP2;P2;SDS_P1;SDS_P2;PMS_P1;PMS_P2;Temp;Humidity;BMP_temperature;BMP_pressure;BME280_temperature;BME280_humidity;BME280_pressure;Samples;Min_cycle;Max_cycle;Signal;HPM_P1;HPM_P2
2021/10/18 00:01:16;;;;;;;17.92;10.63;;;8.60;99.90;;;;;;5028964;28;20098;-71
2021/10/18 00:03:45;;;;;;;17.63;9.60;;;8.60;99.90;;;;;;5009844;28;20053;-71
2021/10/18 00:06:12;;;;;;;20.55;10.68;;;8.70;99.90;;;;;;5027822;28;20830;-71
2021/10/18 00:08:39;;;;;;;18.67;10.25;;;8.60;99.90;;;;;;5027591;28;20138;-71
2021/10/18 00:11:07;;;;;;;21.13;10.88;;;8.60;99.90;;;;;;5030612;28;20106;-72
2021/10/18 00:13:34;;;;;;;21.42;10.05;;;8.50;99.90;;;;;;5032455;28;20332;-72
2021/10/18 00:16:02;;;;;;;17.90;10.35;;;8.40;99.90;;;;;;5031626;28;20045;-71
2021/10/18 00:18:29;;;;;;;22.50;10.68;;;8.40;99.90;;;;;;5031399;28;20571;-71
2021/10/18 00:20:57;;;;;;;20.83;10.55;;;8.30;99.90;;;;;;5032660;28;20099;-71
2021/10/18 00:23:24;;;;;;;19.23;11.20;;;8.30;99.90;;;;;;5032226;28;20041;-71
2021/10/18 00:25:53;;;;;;;16.83;10.32;;;8.20;99.90;;;;;;5030898;28;20056;-71
2021/10/18 00:28:20;;;;;;;17.88;10.32;;;8.30;99.90;;;;;;5031225;28;20492;-71
2021/10/18 00:30:48;;;;;;;19.05;9.98;;;8.20;99.90;;;;;;5031465;28;20044;-71
2021/10/18 00:33:15;;;;;;;17.98;9.68;;;8.20;99.90;;;;;;5031374;28;20059;-71
2021/10/18 00:35:43;;;;;;;16.52;10.20;;;8.20;99.90;;;;;;5031488;28;20041;-71
2021/10/18 00:38:11;;;;;;;20.67;10.25;;;8.10;99.90;;;;;;5031592;28;20052;-71
2021/10/18 00:40:38;;;;;;;19.70;10.10;;;8.10;99.90;;;;;;5031106;28;20483;-71
2021/10/18 00:43:05;;;;;;;19.02;10.60;;;7.90;99.90;;;;;;5031462;28;20094;-71
2021/10/18 00:45:33;;;;;;;21.05;10.90;;;7.90;99.90;;;;;;5030948;28;20076;-71
2021/10/18 00:48:00;;;;;;;19.15;10.95;;;7.80;99.90;;;;;;5031849;28;20572;-71
2021/10/18 00:50:27;;;;;;;20.48;11.25;;;7.90;99.90;;;;;;5031484;28;20041;-71
2021/10/18 00:52:55;;;;;;;19.08;9.88;;;7.80;99.90;;;;;;5031511;28;20045;-71
2021/10/18 00:55:24;;;;;;;17.60;10.35;;;7.80;99.90;;;;;;5030766;28;20130;-71
2021/10/18 00:57:53;;;;;;;22.48;10.48;;;7.60;99.90;;;;;;5031707;28;20110;-71
2021/10/18 01:00:20;;;;;;;18.17;10.25;;;7.60;99.90;;;;;;5031687;28;20102;-71
2021/10/18 01:02:47;;;;;;;22.73;10.52;;;7.70;99.90;;;;;;5031986;28;20069;-71
2021/10/18 01:05:14;;;;;;;19.27;10.63;;;7.60;99.90;;;;;;5030653;28;20111;-72
2021/10/18 01:07:42;;;;;;;20.05;10.85;;;7.40;99.90;;;;;;5031134;28;20132;-71
2021/10/18 01:10:09;;;;;;;19.58;10.07;;;7.40;99.90;;;;;;5031633;28;20057;-71
2021/10/18 01:12:38;;;;;;;19.75;10.00;;;7.40;99.90;;;;;;5030757;28;20111;-71
2021/10/18 01:15:05;;;;;;;16.90;10.43;;;7.30;99.90;;;;;;5030948;28;20485;-71
2021/10/18 01:17:32;;;;;;;19.95;9.95;;;7.20;99.90;;;;;;5031045;28;20047;-71
2021/10/18 01:19:59;;;;;;;20.48;10.32;;;7.10;99.90;;;;;;5031539;28;20053;-71
2021/10/18 01:22:28;;;;;;;19.80;11.70;;;7.10;99.90;;;;;;5030742;28;20371;-71
2021/10/18 01:24:55;;;;;;;22.05;10.68;;;7.00;99.90;;;;;;5031931;28;20179;-71
2021/10/18 01:27:22;;;;;;;21.58;10.77;;;6.90;99.90;;;;;;5031425;28;20053;-71
2021/10/18 01:29:49;;;;;;;21.48;10.93;;;6.90;99.90;;;;;;5031300;28;20573;-73
2021/10/18 01:32:16;;;;;;;17.63;10.13;;;6.90;99.90;;;;;;5031130;28;20049;-71
2021/10/18 01:34:44;;;;;;;21.10;11.38;;;6.90;99.90;;;;;;5030981;28;20110;-73
2021/10/18 01:37:11;;;;;;;25.20;12.20;;;6.80;99.90;;;;;;5030166;28;20049;-73
2021/10/18 01:39:39;;;;;;;20.52;11.65;;;6.80;99.90;;;;;;5030491;28;20098;-71
2021/10/18 01:42:06;;;;;;;22.63;12.27;;;6.80;99.90;;;;;;5031103;28;20049;-73
2021/10/18 01:44:33;;;;;;;23.75;11.75;;;6.60;99.90;;;;;;5030672;28;20072;-73
2021/10/18 01:47:00;;;;;;;23.08;12.85;;;6.60;99.90;;;;;;5029775;28;20138;-73
2021/10/18 01:49:27;;;;;;;22.05;11.88;;;6.60;99.90;;;;;;5031069;28;20053;-73
2021/10/18 01:51:54;;;;;;;29.48;13.80;;;6.60;99.90;;;;;;5030994;28;20243;-73
2021/10/18 01:54:21;;;;;;;25.83;11.60;;;6.50;99.90;;;;;;5030620;28;20055;-73
2021/10/18 01:56:50;;;;;;;20.38;11.15;;;6.40;99.90;;;;;;5030279;28;20501;-73
2021/10/18 01:59:17;;;;;;;21.30;11.27;;;6.40;99.90;;;;;;5030561;28;20915;-73
2021/10/18 02:01:44;;;;;;;21.73;11.70;;;6.40;99.90;;;;;;5031668;28;20049;-71
2021/10/18 02:04:11;;;;;;;19.73;10.43;;;6.30;99.90;;;;;;5031752;28;20045;-71
2021/10/18 02:06:38;;;;;;;20.23;11.68;;;6.20;99.90;;;;;;5029888;28;20094;-71
2021/10/18 02:09:05;;;;;;;23.73;12.20;;;6.20;99.90;;;;;;5031772;28;20045;-71
2021/10/18 02:11:32;;;;;;;22.92;10.98;;;6.30;99.90;;;;;;5031528;28;20063;-71
2021/10/18 02:14:00;;;;;;;19.42;10.85;;;6.20;99.90;;;;;;5032031;28;20063;-71
2021/10/18 02:16:28;;;;;;;22.15;10.88;;;6.10;99.90;;;;;;5031405;28;20094;-71
2021/10/18 02:18:55;;;;;;;19.00;10.18;;;6.10;99.90;;;;;;5031582;28;20056;-71
2021/10/18 02:21:22;;;;;;;18.58;10.02;;;6.00;99.90;;;;;;5030821;28;20122;-71
2021/10/18 02:23:49;;;;;;;19.08;10.63;;;6.00;99.90;;;;;;5031791;28;20498;-73
2021/10/18 02:26:16;;;;;;;17.65;10.13;;;6.00;99.90;;;;;;5030994;28;20566;-72
2021/10/18 02:28:43;;;;;;;22.83;12.18;;;5.90;99.90;;;;;;5031577;28;20040;-71
2021/10/18 02:31:12;;;;;;;24.45;12.13;;;5.90;99.90;;;;;;5031349;28;20501;-72
2021/10/18 02:33:39;;;;;;;24.05;12.30;;;5.90;99.90;;;;;;5030286;28;20075;-71
2021/10/18 02:36:06;;;;;;;26.67;12.75;;;5.90;99.90;;;;;;5030370;28;20049;-71
2021/10/18 02:38:33;;;;;;;21.60;12.65;;;5.90;99.90;;;;;;5030712;28;20057;-72
2021/10/18 02:41:00;;;;;;;17.05;10.52;;;5.90;99.90;;;;;;5031289;28;20041;-72
2021/10/18 02:43:27;;;;;;;21.42;11.43;;;6.00;99.90;;;;;;5030715;28;20572;-72
2021/10/18 02:45:54;;;;;;;20.58;10.85;;;6.00;99.90;;;;;;5030124;28;20048;-72
2021/10/18 02:48:22;;;;;;;40.55;13.10;;;6.00;99.90;;;;;;5030497;28;20968;-71
2021/10/18 02:50:50;;;;;;;160.52;21.77;;;6.10;99.90;;;;;;5030791;28;20386;-71
2021/10/18 02:53:25;;;;;;;73.22;17.80;;;6.20;99.90;;;;;;5031036;28;20681;-71
2021/10/18 02:55:52;;;;;;;49.50;14.07;;;6.30;99.90;;;;;;5029955;28;20060;-71
2021/10/18 02:58:19;;;;;;;53.95;15.85;;;6.40;99.90;;;;;;5030324;28;20528;-71
2021/10/18 03:00:46;;;;;;;46.17;15.90;;;6.40;99.90;;;;;;5030626;28;20052;-71
2021/10/18 03:03:13;;;;;;;24.25;12.80;;;6.30;99.90;;;;;;5031017;28;20261;-71
2021/10/18 03:05:42;;;;;;;35.40;12.68;;;6.40;99.90;;;;;;5029739;28;20051;-71
2021/10/18 03:08:09;;;;;;;25.15;13.15;;;6.50;99.90;;;;;;5031074;28;20697;-71
2021/10/18 03:10:39;;;;;;;28.90;13.00;;;6.50;99.90;;;;;;5030405;28;20056;-72
2021/10/18 03:13:07;;;;;;;36.17;13.25;;;6.40;99.90;;;;;;5031384;28;20052;-71
2021/10/18 03:15:34;;;;;;;89.18;16.13;;;6.50;99.90;;;;;;5029263;28;20088;-71
2021/10/18 03:18:01;;;;;;;50.30;14.27;;;6.60;99.90;;;;;;5030757;28;20048;-71
2021/10/18 03:20:28;;;;;;;85.75;16.17;;;6.60;99.90;;;;;;5029604;28;20124;-73
2021/10/18 03:22:57;;;;;;;69.25;14.10;;;6.70;99.90;;;;;;5030873;28;20067;-71
2021/10/18 03:25:24;;;;;;;36.03;12.05;;;6.70;99.90;;;;;;5029741;28;20049;-71
2021/10/18 03:27:51;;;;;;;82.90;15.80;;;6.70;99.90;;;;;;5031628;28;20579;-71
2021/10/18 03:30:21;;;;;;;92.50;14.13;;;6.70;99.90;;;;;;5030327;28;20696;-72
2021/10/18 03:32:48;;;;;;;163.30;16.98;;;6.60;99.90;;;;;;5030037;28;20068;-71
2021/10/18 03:35:15;;;;;;;231.15;19.33;;;6.60;99.90;;;;;;5029758;28;20092;-71
2021/10/18 03:37:42;;;;;;;156.60;18.92;;;6.30;99.90;;;;;;5030183;28;20103;-71
2021/10/18 03:40:12;;;;;;;101.07;13.57;;;6.40;99.90;;;;;;5030775;28;20045;-72
2021/10/18 03:42:39;;;;;;;264.45;19.55;;;6.40;99.90;;;;;;5029777;28;20490;-72
2021/10/18 03:45:07;;;;;;;74.88;13.27;;;6.30;99.90;;;;;;5031730;28;20444;-71
2021/10/18 03:47:34;;;;;;;103.50;14.48;;;6.30;99.90;;;;;;5033907;28;20040;-73
2021/10/18 03:50:01;;;;;;;102.78;15.63;;;6.40;99.90;;;;;;5033982;28;20464;-73
2021/10/18 03:52:28;;;;;;;165.43;16.83;;;6.50;99.90;;;;;;5033574;28;20052;-73
2021/10/18 03:54:56;;;;;;;87.43;16.90;;;6.40;99.90;;;;;;5034517;28;20160;-71
2021/10/18 03:57:24;;;;;;;268.23;21.27;;;6.30;99.90;;;;;;5032619;28;20372;-70
2021/10/18 03:59:51;;;;;;;126.32;18.35;;;6.30;99.90;;;;;;5034624;28;20053;-71
2021/10/18 04:02:19;;;;;;;128.75;18.38;;;6.30;99.90;;;;;;5033953;28;20490;-71
2021/10/18 04:04:46;;;;;;;167.68;20.58;;;6.50;99.90;;;;;;5034822;28;20444;-72
2021/10/18 04:07:13;;;;;;;104.22;16.58;;;6.30;99.90;;;;;;5034115;28;20114;-71
2021/10/18 04:09:40;;;;;;;94.85;18.20;;;6.30;99.90;;;;;;5033116;28;20049;-72
2021/10/18 04:12:07;;;;;;;72.38;16.83;;;6.30;99.90;;;;;;5033888;28;20056;-72
2021/10/18 04:14:36;;;;;;;85.30;17.23;;;6.30;99.90;;;;;;5033552;28;20806;-72
2021/10/18 04:17:03;;;;;;;54.65;16.63;;;6.30;99.90;;;;;;5034799;28;20052;-71
2021/10/18 04:19:30;;;;;;;65.00;17.08;;;6.30;99.90;;;;;;5033215;28;20183;-71
2021/10/18 04:21:57;;;;;;;192.32;18.73;;;6.40;99.90;;;;;;5034326;28;21095;-72
2021/10/18 04:24:24;;;;;;;131.73;18.05;;;6.30;99.90;;;;;;5036189;28;20126;-71
2021/10/18 04:26:51;;;;;;;192.02;19.65;;;6.30;99.90;;;;;;5036817;28;20158;-73
2021/10/18 04:29:18;;;;;;;52.83;13.15;;;6.30;99.90;;;;;;5034162;28;20081;-73
2021/10/18 04:31:46;;;;;;;43.95;12.90;;;6.40;99.90;;;;;;5033570;28;20095;-71
2021/10/18 04:34:13;;;;;;;90.50;16.38;;;6.50;99.90;;;;;;5033248;28;20048;-72
2021/10/18 04:36:41;;;;;;;78.63;14.55;;;6.40;99.90;;;;;;5032843;28;20390;-72
2021/10/18 04:39:08;;;;;;;98.32;15.05;;;6.50;99.90;;;;;;5035087;28;20080;-72
2021/10/18 04:41:35;;;;;;;39.72;12.63;;;6.40;99.90;;;;;;5033696;28;20041;-72
2021/10/18 04:44:01;;;;;;;147.80;16.08;;;6.40;99.90;;;;;;5033379;28;20088;-71
2021/10/18 04:46:28;;;;;;;38.75;12.35;;;6.30;99.90;;;;;;5032713;28;20501;-71
2021/10/18 04:48:57;;;;;;;60.58;13.45;;;6.40;99.90;;;;;;5033366;28;20057;-71
2021/10/18 04:51:24;;;;;;;186.23;17.23;;;6.50;99.90;;;;;;5032161;28;20497;-71
2021/10/18 04:53:51;;;;;;;101.00;14.05;;;6.20;99.90;;;;;;5033089;28;20045;-71
2021/10/18 04:56:18;;;;;;;51.92;12.98;;;6.10;99.90;;;;;;5032025;28;20102;-71
2021/10/18 04:58:45;;;;;;;41.72;11.90;;;6.30;99.90;;;;;;5034097;28;20044;-71
2021/10/18 05:01:12;;;;;;;43.67;12.18;;;6.50;99.90;;;;;;5032825;28;20049;-71
2021/10/18 05:03:39;;;;;;;49.90;11.93;;;6.50;99.90;;;;;;5036637;28;20086;-71
2021/10/18 05:06:08;;;;;;;31.40;11.48;;;6.40;99.90;;;;;;5036805;28;20044;-73
2021/10/18 05:08:35;;;;;;;79.85;13.73;;;6.50;99.90;;;;;;5032447;28;20052;-72
2021/10/18 05:11:02;;;;;;;56.42;14.32;;;6.40;99.90;;;;;;5033122;28;20060;-72
2021/10/18 05:13:29;;;;;;;28.73;12.82;;;6.30;99.90;;;;;;5032573;28;20076;-72
2021/10/18 05:15:56;;;;;;;21.92;11.15;;;6.40;99.90;;;;;;5031590;28;20049;-72
2021/10/18 05:18:24;;;;;;;19.38;11.27;;;6.40;99.90;;;;;;5032558;28;20694;-73
2021/10/18 05:20:52;;;;;;;19.45;11.30;;;6.50;99.90;;;;;;5032993;28;20045;-71
2021/10/18 05:23:20;;;;;;;20.77;11.52;;;6.60;99.90;;;;;;5032480;28;20114;-72
2021/10/18 05:25:47;;;;;;;20.13;10.95;;;6.60;99.90;;;;;;5033148;28;20105;-71
2021/10/18 05:28:14;;;;;;;18.05;10.20;;;6.60;99.90;;;;;;5032067;28;20412;-72
2021/10/18 05:30:42;;;;;;;16.73;9.65;;;6.50;99.90;;;;;;5032845;28;20045;-72
2021/10/18 05:33:08;;;;;;;17.67;9.75;;;6.50;99.90;;;;;;5031926;28;20084;-72
2021/10/18 05:35:36;;;;;;;17.52;9.18;;;6.60;99.90;;;;;;5031137;28;20049;-72
2021/10/18 05:38:04;;;;;;;14.68;8.93;;;6.40;99.90;;;;;;5032939;28;20102;-72
2021/10/18 05:40:32;;;;;;;15.35;9.43;;;6.40;99.90;;;;;;5031523;28;20049;-72
2021/10/18 05:42:59;;;;;;;14.98;9.48;;;6.40;99.90;;;;;;5032908;28;20090;-72
2021/10/18 05:45:26;;;;;;;16.02;9.35;;;6.50;99.90;;;;;;5030039;28;20053;-72
2021/10/18 05:47:58;;;;;;;17.20;10.15;;;6.50;99.90;;;;;;5031626;28;20498;-72
2021/10/18 05:50:27;;;;;;;16.23;9.23;;;6.50;99.90;;;;;;5031720;28;20143;-71
2021/10/18 05:52:55;;;;;;;15.77;9.10;;;6.50;99.90;;;;;;5032235;28;20049;-71
2021/10/18 05:55:23;;;;;;;23.67;10.82;;;6.50;99.90;;;;;;5030643;28;21415;-71
2021/10/18 05:57:53;;;;;;;22.02;11.02;;;6.50;99.90;;;;;;5032531;28;20041;-71
2021/10/18 06:00:21;;;;;;;18.65;10.55;;;6.60;99.90;;;;;;5032292;28;20048;-72
2021/10/18 06:02:49;;;;;;;16.77;9.68;;;6.60;99.90;;;;;;5031574;28;20053;-72
2021/10/18 06:05:17;;;;;;;16.23;10.05;;;6.50;99.90;;;;;;5031097;28;20049;-72
2021/10/18 06:07:44;;;;;;;17.52;10.15;;;6.60;99.90;;;;;;5032125;28;20497;-72
2021/10/18 06:10:13;;;;;;;16.67;9.55;;;6.40;99.90;;;;;;5031410;28;20082;-72
2021/10/18 06:12:43;;;;;;;20.52;10.32;;;6.60;99.90;;;;;;5031380;28;20037;-72
2021/10/18 06:15:13;;;;;;;18.30;11.15;;;6.70;99.90;;;;;;5031954;28;20525;-71
2021/10/18 06:17:41;;;;;;;17.05;10.50;;;6.70;99.90;;;;;;5030321;28;20099;-71
2021/10/18 06:20:10;;;;;;;16.00;9.93;;;6.70;99.90;;;;;;5031105;28;20053;-71
2021/10/18 06:22:37;;;;;;;16.27;9.50;;;6.70;99.90;;;;;;5030995;28;20049;-72
2021/10/18 06:25:04;;;;;;;16.55;9.90;;;6.80;99.90;;;;;;5031649;28;20152;-71
2021/10/18 06:27:31;;;;;;;17.05;10.50;;;6.80;99.90;;;;;;5030366;28;20454;-72
2021/10/18 06:29:59;;;;;;;17.67;10.60;;;6.70;99.90;;;;;;5031043;28;20076;-71
2021/10/18 06:32:27;;;;;;;18.70;11.18;;;6.80;99.90;;;;;;5031181;28;20055;-71
2021/10/18 06:34:54;;;;;;;16.33;9.18;;;6.80;99.90;;;;;;5030614;28;20061;-72
2021/10/18 06:37:21;;;;;;;17.80;10.13;;;6.80;99.90;;;;;;5030850;28;20076;-72
2021/10/18 06:39:48;;;;;;;19.10;9.65;;;6.90;99.90;;;;;;5030762;28;20417;-71
2021/10/18 06:42:15;;;;;;;23.52;12.05;;;7.00;99.90;;;;;;5031046;28;20105;-71
2021/10/18 06:44:42;;;;;;;24.88;12.30;;;7.00;99.90;;;;;;5031649;28;20081;-71
2021/10/18 06:47:09;;;;;;;25.67;12.93;;;6.80;99.90;;;;;;5030343;28;20057;-71
2021/10/18 06:49:41;;;;;;;23.25;11.57;;;6.90;99.90;;;;;;5030733;28;20126;-72
2021/10/18 06:52:08;;;;;;;25.48;12.73;;;6.90;99.90;;;;;;5032357;28;20422;-71
2021/10/18 06:54:38;;;;;;;21.80;12.18;;;6.90;99.90;;;;;;5030004;28;20057;-71
2021/10/18 06:57:05;;;;;;;24.15;11.70;;;7.00;99.90;;;;;;5028043;28;20063;-71
2021/10/18 06:59:32;;;;;;;24.80;13.25;;;6.90;99.90;;;;;;5027950;28;20060;-72
2021/10/18 07:02:00;;;;;;;19.10;11.63;;;7.00;99.90;;;;;;5033066;28;20086;-71
2021/10/18 07:04:29;;;;;;;16.25;9.98;;;7.00;99.90;;;;;;5031544;28;20134;-72
2021/10/18 07:06:58;;;;;;;13.80;9.00;;;7.20;99.90;;;;;;5030684;28;20056;-71
2021/10/18 07:09:27;;;;;;;13.90;8.65;;;7.30;99.90;;;;;;5030696;28;20092;-72
2021/10/18 07:11:55;;;;;;;15.35;9.02;;;7.30;99.90;;;;;;5032404;28;20056;-71
2021/10/18 07:14:22;;;;;;;17.83;9.23;;;7.40;99.90;;;;;;5032268;28;20041;-72
2021/10/18 07:16:49;;;;;;;15.55;8.73;;;7.30;99.90;;;;;;5031353;28;21138;-72
2021/10/18 07:19:16;;;;;;;17.25;9.15;;;7.30;99.90;;;;;;5032322;28;20102;-71
2021/10/18 07:21:45;;;;;;;15.55;8.15;;;7.40;99.90;;;;;;5036205;28;20088;-71
2021/10/18 07:24:16;;;;;;;17.30;8.85;;;7.50;99.90;;;;;;5036042;28;20801;-72
2021/10/18 07:26:43;;;;;;;14.68;9.05;;;7.50;99.90;;;;;;5033900;28;20110;-71
2021/10/18 07:29:10;;;;;;;34.55;13.35;;;7.60;99.90;;;;;;5034677;28;20080;-72
2021/10/18 07:31:39;;;;;;;20.75;9.80;;;7.40;99.90;;;;;;5039955;28;20052;-71
2021/10/18 07:34:12;;;;;;;22.92;10.70;;;7.40;99.90;;;;;;5038420;28;20049;-72
2021/10/18 07:36:46;;;;;;;21.88;10.07;;;7.60;99.90;;;;;;5033000;28;20080;-72
2021/10/18 07:39:15;;;;;;;18.13;10.38;;;7.60;99.90;;;;;;5034664;28;20053;-71
2021/10/18 07:41:43;;;;;;;13.20;7.95;;;7.80;99.90;;;;;;5034188;28;20063;-72
2021/10/18 07:44:10;;;;;;;15.95;9.25;;;7.90;99.90;;;;;;5034303;28;20049;-71
2021/10/18 07:46:37;;;;;;;15.15;8.05;;;8.00;99.90;;;;;;5035233;28;20493;-71
2021/10/18 07:49:04;;;;;;;19.27;8.98;;;7.90;99.90;;;;;;5036077;28;20045;-71
2021/10/18 07:51:31;;;;;;;23.65;9.07;;;8.00;99.90;;;;;;5034551;28;20048;-71
2021/10/18 07:54:02;;;;;;;17.23;9.70;;;8.00;99.90;;;;;;5036389;28;20345;-71
2021/10/18 07:56:31;;;;;;;13.25;8.02;;;8.20;99.90;;;;;;5034657;28;20060;-71
2021/10/18 07:58:58;;;;;;;18.75;9.00;;;8.30;99.90;;;;;;5036330;28;20439;-72
2021/10/18 08:01:25;;;;;;;17.60;9.55;;;8.30;99.90;;;;;;5035257;28;20059;-71
2021/10/18 08:03:53;;;;;;;18.58;8.77;;;8.30;99.90;;;;;;5034892;28;20048;-71
2021/10/18 08:06:20;;;;;;;15.05;8.63;;;8.40;99.90;;;;;;5034956;28;20122;-71
2021/10/18 08:08:50;;;;;;;16.50;9.23;;;8.40;99.90;;;;;;5035652;28;20095;-71
2021/10/18 08:11:17;;;;;;;16.73;10.05;;;8.50;99.90;;;;;;5035904;28;20463;-71
2021/10/18 08:13:46;;;;;;;17.75;9.68;;;8.30;99.90;;;;;;5035162;28;20060;-71
2021/10/18 08:16:13;;;;;;;15.65;9.68;;;8.40;99.90;;;;;;5034483;28;20056;-71
2021/10/18 08:18:40;;;;;;;14.52;9.23;;;8.60;99.90;;;;;;5035611;28;20102;-71
2021/10/18 08:21:09;;;;;;;15.55;10.25;;;8.80;99.90;;;;;;5035411;28;20057;-71
2021/10/18 08:23:36;;;;;;;18.60;9.60;;;8.70;99.90;;;;;;5035422;28;20061;-71
2021/10/18 08:26:04;;;;;;;16.27;9.60;;;8.70;99.90;;;;;;5035040;28;20052;-71
2021/10/18 08:28:32;;;;;;;24.15;10.23;;;8.70;99.90;;;;;;5035952;28;20487;-71
2021/10/18 08:31:00;;;;;;;15.13;9.82;;;8.90;99.90;;;;;;5032671;28;20085;-71
2021/10/18 08:33:27;;;;;;;16.75;9.57;;;8.80;99.90;;;;;;5032416;28;20060;-71
2021/10/18 08:35:54;;;;;;;16.27;9.73;;;8.90;99.90;;;;;;5031823;28;20559;-71
2021/10/18 08:38:46;;;;;;;18.15;10.80;;;8.80;99.90;;;;;;5031960;28;20464;-70
2021/10/18 08:41:16;;;;;;;17.63;10.45;;;9.10;99.90;;;;;;5032017;28;20212;-71
2021/10/18 08:46:42;;;;;;;16.00;9.63;;;9.00;99.90;;;;;;4950709;28;20050;-71
2021/10/18 08:49:09;;;;;;;16.20;10.73;;;8.90;99.90;;;;;;5012419;28;20464;-71
2021/10/18 08:51:36;;;;;;;19.05;10.85;;;9.20;99.90;;;;;;5031021;28;20072;-71
2021/10/18 08:54:07;;;;;;;19.48;10.52;;;9.20;99.90;;;;;;5032280;28;20045;-71
2021/10/18 08:56:34;;;;;;;17.58;10.85;;;9.20;99.90;;;;;;5030869;28;20434;-71
2021/10/18 08:59:01;;;;;;;17.45;10.75;;;9.30;99.90;;;;;;5031579;28;20490;-71
2021/10/18 09:01:42;;;;;;;17.83;10.80;;;9.50;99.90;;;;;;5030642;28;20084;-71
2021/10/18 09:04:26;;;;;;;20.13;11.50;;;9.60;99.90;;;;;;5031453;28;20742;-71
2021/10/18 09:06:55;;;;;;;15.85;10.60;;;9.60;99.90;;;;;;5031598;28;20513;-71
2021/10/18 09:09:27;;;;;;;17.67;10.68;;;9.60;99.90;;;;;;5031480;28;20041;-71
2021/10/18 09:11:56;;;;;;;21.05;11.55;;;9.70;99.90;;;;;;5031519;28;20746;-72
2021/10/18 09:14:23;;;;;;;21.05;11.90;;;9.70;99.90;;;;;;5031897;28;20111;-71
2021/10/18 09:16:52;;;;;;;18.65;11.77;;;9.70;99.90;;;;;;5030996;28;20671;-71
2021/10/18 09:19:23;;;;;;;20.60;11.45;;;9.70;99.90;;;;;;5031230;28;20053;-71
2021/10/18 09:21:52;;;;;;;21.83;12.23;;;9.70;99.90;;;;;;5031444;28;20053;-71
2021/10/18 09:24:41;;;;;;;27.58;11.60;;;9.80;99.90;;;;;;5031227;28;20057;-71
2021/10/18 09:27:09;;;;;;;20.70;12.45;;;9.80;99.90;;;;;;5030840;28;20092;-71
2021/10/18 09:29:39;;;;;;;21.50;11.15;;;9.80;99.90;;;;;;5030471;28;20465;-71
2021/10/18 09:32:08;;;;;;;23.40;11.88;;;9.80;99.90;;;;;;5031072;28;20067;-71
2021/10/18 09:34:36;;;;;;;20.77;11.23;;;9.70;99.90;;;;;;5030914;28;20546;-72
2021/10/18 09:37:07;;;;;;;25.55;11.13;;;9.70;99.90;;;;;;5030453;28;20057;-71
2021/10/18 09:39:34;;;;;;;16.45;9.80;;;9.70;99.90;;;;;;5031502;28;20053;-70
2021/10/18 09:42:04;;;;;;;19.10;10.57;;;9.70;99.90;;;;;;5029992;28;20501;-70
2021/10/18 10:52:57;;;;;;;33.80;18.27;;;11.40;99.90;;;;;;5032234;28;20098;-72
2021/10/18 10:55:30;;;;;;;36.35;20.88;;;11.40;99.90;;;;;;5030830;28;20157;-72
2021/10/18 10:58:00;;;;;;;41.65;22.02;;;11.40;99.90;;;;;;5028130;28;20497;-72
2021/10/18 11:00:32;;;;;;;50.00;26.17;;;11.50;99.90;;;;;;5028984;28;20049;-71
2021/10/18 11:03:36;;;;;;;43.28;23.30;;;11.50;99.90;;;;;;5027751;28;20088;-72
2021/10/18 11:06:04;;;;;;;48.33;27.60;;;11.40;99.90;;;;;;5028003;28;20528;-72
2021/10/18 11:08:33;;;;;;;50.00;29.25;;;11.30;99.90;;;;;;5027674;28;20052;-72
2021/10/18 11:11:11;;;;;;;50.28;29.15;;;11.30;99.90;;;;;;5027440;28;20138;-72
2021/10/18 11:13:47;;;;;;;48.67;26.75;;;11.30;99.90;;;;;;5027446;28;20130;-72
2021/10/18 11:16:14;;;;;;;46.55;25.92;;;11.30;99.90;;;;;;5027908;28;20072;-72
2021/10/18 11:18:42;;;;;;;45.95;26.42;;;11.40;99.90;;;;;;5028094;28;20107;-72
2021/10/18 11:21:13;;;;;;;44.65;26.30;;;11.40;99.90;;;;;;5028491;28;20049;-72
2021/10/18 11:24:02;;;;;;;48.33;27.92;;;11.60;99.90;;;;;;5027869;28;20560;-72
2021/10/18 11:26:34;;;;;;;48.15;27.55;;;11.50;99.90;;;;;;5026891;28;20061;-72
2021/10/18 11:29:03;;;;;;;48.30;26.08;;;11.50;99.90;;;;;;5028818;28;20147;-72
2021/10/18 11:31:33;;;;;;;52.17;29.70;;;11.40;99.90;;;;;;5027592;28;20055;-71
2021/10/18 11:34:05;;;;;;;55.53;30.27;;;11.30;99.90;;;;;;5028808;28;20056;-72
2021/10/18 11:36:32;;;;;;;47.05;26.63;;;11.40;99.90;;;;;;5027273;28;20057;-72
2021/10/18 11:39:14;;;;;;;48.00;25.95;;;11.40;99.90;;;;;;5027594;28;20126;-72
2021/10/18 11:42:08;;;;;;;47.88;26.40;;;11.40;99.90;;;;;;5027774;28;20098;-71
2021/10/18 11:44:40;;;;;;;46.78;26.35;;;11.50;99.90;;;;;;5027337;28;20701;-72
2021/10/18 11:47:34;;;;;;;49.30;27.80;;;11.60;99.90;;;;;;5027288;28;20126;-72
2021/10/18 11:50:24;;;;;;;44.65;26.17;;;11.60;99.90;;;;;;5027644;28;20049;-72
2021/10/18 11:52:57;;;;;;;45.40;24.30;;;12.00;99.90;;;;;;5030992;28;20049;-72
2021/10/18 11:55:28;;;;;;;47.53;24.90;;;11.90;99.90;;;;;;5031241;28;20103;-72
2021/10/18 11:57:59;;;;;;;42.30;24.75;;;11.80;99.90;;;;;;5033220;28;20066;-71
2021/10/18 12:00:29;;;;;;;44.85;25.90;;;11.80;99.90;;;;;;5032375;28;20093;-72
2021/10/18 12:03:01;;;;;;;48.15;25.30;;;11.50;99.90;;;;;;5032817;28;20106;-72
2021/10/18 12:05:37;;;;;;;42.92;24.88;;;11.70;99.90;;;;;;5032455;28;20544;-72
2021/10/18 12:08:05;;;;;;;44.38;26.90;;;12.10;99.90;;;;;;5036410;28;20138;-71
2021/10/18 12:10:34;;;;;;;43.55;24.52;;;12.10;99.90;;;;;;5035409;28;20057;-72
2021/10/18 12:13:23;;;;;;;44.80;26.08;;;12.20;99.90;;;;;;5035211;28;20089;-73
2021/10/18 12:15:58;;;;;;;44.30;24.90;;;12.10;99.90;;;;;;5035846;28;20071;-72
2021/10/18 12:18:28;;;;;;;41.13;24.17;;;12.10;99.90;;;;;;5035934;28;20061;-71
2021/10/18 12:20:59;;;;;;;42.08;23.95;;;12.40;99.90;;;;;;5034990;28;20080;-71
2021/10/18 12:23:29;;;;;;;39.05;23.02;;;12.50;99.90;;;;;;5035081;28;20509;-71
2021/10/18 12:25:59;;;;;;;41.13;24.05;;;12.20;99.90;;;;;;5035681;28;20204;-71
2021/10/18 12:28:42;;;;;;;43.05;22.52;;;12.00;99.90;;;;;;5034688;28;20463;-71
2021/10/18 12:31:26;;;;;;;40.53;23.52;;;11.90;99.90;;;;;;5031337;28;20053;-71
2021/10/18 12:34:05;;;;;;;38.67;23.00;;;12.10;99.90;;;;;;5031518;28;20103;-71
2021/10/18 12:36:33;;;;;;;39.60;22.50;;;12.10;99.90;;;;;;5030031;28;20134;-71
2021/10/18 12:39:01;;;;;;;41.90;23.73;;;12.30;99.90;;;;;;5031650;28;20080;-71
2021/10/18 12:41:28;;;;;;;37.38;22.55;;;12.40;99.90;;;;;;5031192;28;20457;-71
2021/10/18 12:43:56;;;;;;;41.50;23.15;;;12.40;99.90;;;;;;5031095;28;20049;-71
2021/10/18 12:46:26;;;;;;;42.05;23.95;;;12.10;99.90;;;;;;5030330;28;20521;-71
2021/10/18 12:49:11;;;;;;;39.67;22.48;;;12.30;99.90;;;;;;5031430;28;20102;-71
2021/10/18 12:51:41;;;;;;;39.42;23.05;;;12.70;99.90;;;;;;5030327;28;20056;-71
2021/10/18 12:54:27;;;;;;;40.30;22.50;;;12.50;99.90;;;;;;5030547;28;20067;-72
2021/10/18 12:56:58;;;;;;;40.47;22.67;;;12.40;99.90;;;;;;5030087;28;20122;-71
2021/10/18 12:59:27;;;;;;;41.38;22.55;;;12.50;99.90;;;;;;5030835;28;20114;-71
2021/10/18 13:02:19;;;;;;;39.13;22.33;;;12.70;99.90;;;;;;5029781;28;20087;-71
2021/10/18 13:05:14;;;;;;;37.47;22.13;;;13.20;99.90;;;;;;5030775;28;20798;-71
2021/10/18 13:07:44;;;;;;;38.10;21.45;;;13.30;99.90;;;;;;4994704;28;20057;-71
2021/10/18 13:10:13;;;;;;;36.50;21.48;;;13.90;99.90;;;;;;5029581;28;20057;-71
2021/10/18 13:12:41;;;;;;;37.95;22.80;;;13.90;99.90;;;;;;5030265;28;20049;-71
2021/10/18 13:15:11;;;;;;;38.33;23.70;;;13.40;99.90;;;;;;5029829;28;20061;-71
2021/10/18 13:17:39;;;;;;;38.95;23.13;;;13.40;99.90;;;;;;5029496;28;20052;-71
2021/10/18 13:20:08;;;;;;;38.70;23.50;;;13.00;99.90;;;;;;5029977;28;20510;-71
2021/10/18 13:22:36;;;;;;;40.85;23.50;;;12.80;99.90;;;;;;5029828;28;20150;-71
2021/10/18 13:25:04;;;;;;;38.60;22.63;;;12.70;99.90;;;;;;5029847;28;20084;-71
2021/10/18 13:27:32;;;;;;;37.63;21.80;;;13.00;99.90;;;;;;5029135;28;20476;-71
2021/10/18 13:29:59;;;;;;;39.92;22.85;;;13.30;99.90;;;;;;5029794;28;20520;-71
2021/10/18 13:32:28;;;;;;;34.65;21.85;;;13.70;99.90;;;;;;5029310;28;20093;-72
2021/10/18 13:34:56;;;;;;;37.83;22.33;;;14.50;99.90;;;;;;5030095;28;20056;-71
2021/10/18 13:37:24;;;;;;;36.97;22.52;;;14.30;99.90;;;;;;5029413;28;20136;-71
2021/10/18 13:39:52;;;;;;;33.30;20.90;;;14.70;99.90;;;;;;5030552;28;20049;-71
2021/10/18 13:42:19;;;;;;;37.85;22.05;;;15.20;99.90;;;;;;5028952;28;20456;-71
2021/10/18 13:44:46;;;;;;;35.97;22.58;;;14.60;99.90;;;;;;5028700;28;20133;-71
2021/10/18 13:47:13;;;;;;;34.88;21.05;;;14.70;99.90;;;;;;5028820;28;20057;-71
2021/10/18 13:49:42;;;;;;;35.55;21.08;;;15.80;99.90;;;;;;5029064;28;20067;-71
2021/10/18 13:52:09;;;;;;;32.95;21.33;;;15.50;99.90;;;;;;5029723;28;20493;-71
2021/10/18 13:54:36;;;;;;;33.80;21.38;;;15.40;99.90;;;;;;5030163;28;20084;-72
2021/10/18 13:57:04;;;;;;;34.40;21.30;;;15.60;99.90;;;;;;5028505;28;20190;-72